Historique des mesures à Cassis (13260), France
Quotidien Résumé Avril 11, 2017 Unités:  Métrique    US   Métrique/US
« Précédent (Jour)
Suivant (Jour) »
Quotidien Hebdomadaire Mensuel Annuel Période au choix
  Maximum: Minimum: Moyenne:
Température: TemperatureC °C 14.2 °C 16.6 °C
Point de rosée: DewpointC °C 5.8 °C 8.3 °C
Humidité: Humidity % 41 % 56 %
Vitesse du vent: 0 km/h 0 km/h 10.6 km/h
Rafales: 0 km/h - -
Vent:- - South
Pression: PressurehPa hPa 1012.8 hPa -
Précipitations: 0.0 mm    
Historical Graphs
 
 
Mesures pour : Avril 11, 2017
Heure Temperature Point de rosée Pression Vent Vitesse du vent Rafales Humidité Pluie (par heure) Conditions
TemperatureC °C DewpointC °C PressurehPa hPa Calm     Humidity % HourlyPrecipMM mm SoftwareType W/m2
00:11 14.4 °C 9.6 °C 1016.5 hPa SE 3.4 km/h 3.4 km/h 73 % 0.0 mm open2300-1.11 W/m2
01:11 14.5 °C 9.3 °C 1015.8 hPa Calm     71 % 0.0 mm open2300-1.11 W/m2
02:11 14.3 °C 9.7 °C 1014.8 hPa Calm   2.3 km/h 74 % 0.0 mm open2300-1.11 W/m2
03:11 16.1 °C 9.8 °C 1013.8 hPa ENE 6.4 km/h 7.6 km/h 66 % 0.0 mm open2300-1.11 W/m2
04:11 16.1 °C 9.6 °C 1013.8 hPa NW 7.6 km/h 23.8 km/h 65 % 0.0 mm open2300-1.11 W/m2
05:11 15.8 °C 9.3 °C 1013.4 hPa NNW 17.4 km/h 17.4 km/h 65 % 0.0 mm open2300-1.11 W/m2
06:11 15.6 °C 8.8 °C 1013.8 hPa NNW 2.9 km/h 5.6 km/h 64 % 0.0 mm open2300-1.11 W/m2
07:11 14.4 °C 9.0 °C 1014.4 hPa NNW 3.4 km/h 3.4 km/h 70 % 0.0 mm open2300-1.11 W/m2
08:11 14.2 °C 9.4 °C 1015.1 hPa South 4.7 km/h 4.7 km/h 73 % 0.0 mm open2300-1.11 W/m2
09:11 15.3 °C 11.1 °C 1014.8 hPa ESE 2.3 km/h 2.9 km/h 76 % 0.0 mm open2300-1.11 W/m2
10:11 16.0 °C 12.0 °C 1014.8 hPa Calm   2.3 km/h 77 % 0.0 mm open2300-1.11 W/m2
11:11 18.3 °C 13.6 °C 1014.8 hPa Calm   5.6 km/h 74 % 0.0 mm open2300-1.11 W/m2
12:11 20.9 °C 10.9 °C 1014.4 hPa North 21.6 km/h 34.8 km/h 53 % 0.0 mm open2300-1.11 W/m2
13:11 21.6 °C 10.4 °C 1014.4 hPa NE 9.8 km/h 44.6 km/h 49 % 0.0 mm open2300-1.11 W/m2
14:11 20.9 °C 7.5 °C 1013.8 hPa North 39.4 km/h 64.7 km/h 42 % 0.0 mm open2300-1.11 W/m2
15:11 20.7 °C 7.3 °C 1013.4 hPa NNW 25.4 km/h 35.2 km/h 42 % 0.0 mm open2300-1.11 W/m2
16:11 19.5 °C 5.9 °C 1012.8 hPa NW 24.3 km/h 27.7 km/h 41 % 0.0 mm open2300-1.11 W/m2
17:11 20.0 °C 7.0 °C 1012.8 hPa North 30.1 km/h 30.7 km/h 43 % 0.0 mm open2300-1.11 W/m2
18:11 18.9 °C 6.3 °C 1013.1 hPa North 14.5 km/h 14.5 km/h 44 % 0.0 mm open2300-1.11 W/m2
19:11 19.2 °C 6.3 °C 1012.8 hPa NNE 14.5 km/h 14.5 km/h 43 % 0.0 mm open2300-1.11 W/m2
20:11 18.6 °C 6.1 °C 1013.1 hPa NNW 12.2 km/h 12.2 km/h 44 % 0.0 mm open2300-1.11 W/m2
21:11 17.8 °C 5.9 °C 1013.8 hPa NW 24.8 km/h 24.8 km/h 46 % 0.0 mm open2300-1.11 W/m2
22:11 16.9 °C 5.8 °C 1014.1 hPa Calm   3.4 km/h 48 % 0.0 mm open2300-1.11 W/m2
23:11 15.9 °C 5.8 °C 1014.4 hPa Calm     51 % 0.0 mm open2300-1.11 W/m2
Observations météo à CASSIS
WU-History script by Weather Underground - 1 mb